Time;durP1;ratioP1;P1;durP2;ratioP2;P2;SDS_P1;SDS_P2;PMS_P1;PMS_P2;Temp;Humidity;BMP_temperature;BMP_pressure;BME280_temperature;BME280_humidity;BME280_pressure;Samples;Min_cycle;Max_cycle;Signal;HPM_P1;HPM_P2
2022/06/01 00:00:13;;;;;;;1.50;1.00;;;22.10;43.80;;;;;;6164650;28;20046;-71
2022/06/01 00:03:14;;;;;;;1.90;1.20;;;22.10;43.80;;;;;;6197161;28;20385;-71
2022/06/01 00:06:15;;;;;;;1.23;0.82;;;22.10;43.80;;;;;;6185661;28;20035;-72
2022/06/01 00:09:15;;;;;;;1.50;0.90;;;22.10;43.70;;;;;;6171781;28;20509;-71
2022/06/01 00:12:16;;;;;;;1.27;1.00;;;22.10;43.70;;;;;;6189030;28;20031;-71
2022/06/01 00:15:19;;;;;;;1.75;1.17;;;22.10;43.80;;;;;;6194560;28;20133;-71
2022/06/01 00:18:22;;;;;;;1.67;1.02;;;22.10;43.70;;;;;;6171501;28;20093;-71
2022/06/01 00:21:22;;;;;;;2.35;0.93;;;22.10;43.80;;;;;;6181587;28;20037;-71
2022/06/01 00:24:23;;;;;;;1.92;1.30;;;22.10;43.70;;;;;;6195315;28;20030;-71
2022/06/01 00:27:24;;;;;;;1.30;0.90;;;22.10;43.70;;;;;;6178898;28;20035;-72
2022/06/01 00:30:25;;;;;;;1.90;0.98;;;22.10;43.80;;;;;;6174554;28;20382;-71
2022/06/01 00:33:26;;;;;;;1.45;1.15;;;22.10;43.70;;;;;;6170665;28;20061;-71
2022/06/01 00:36:26;;;;;;;1.25;0.90;;;22.10;43.70;;;;;;6179492;28;20042;-72
2022/06/01 00:39:27;;;;;;;1.55;1.08;;;22.10;43.70;;;;;;6196521;28;20030;-71
2022/06/01 00:42:30;;;;;;;1.80;1.23;;;22.20;43.80;;;;;;6176030;28;20035;-71
2022/06/01 00:45:31;;;;;;;1.27;0.88;;;22.10;43.90;;;;;;6171928;28;20023;-72
2022/06/01 00:48:33;;;;;;;1.65;1.10;;;22.00;45.40;;;;;;6195347;28;20527;-72
2022/06/01 00:51:34;;;;;;;1.35;0.90;;;21.90;45.70;;;;;;6186137;28;20027;-72
2022/06/01 00:54:35;;;;;;;1.30;0.80;;;21.80;46.00;;;;;;6188456;28;20026;-71
2022/06/01 00:57:37;;;;;;;1.27;1.10;;;21.80;46.00;;;;;;6186205;28;20027;-72
2022/06/01 01:00:40;;;;;;;1.23;0.93;;;21.70;46.00;;;;;;6195658;28;20473;-72
2022/06/01 01:03:43;;;;;;;1.50;0.93;;;21.80;46.20;;;;;;6173235;28;20069;-72
2022/06/01 01:06:46;;;;;;;1.23;0.88;;;21.70;46.20;;;;;;6175915;28;20038;-71
2022/06/01 01:09:47;;;;;;;1.38;1.00;;;21.70;46.50;;;;;;6195240;28;20026;-73
2022/06/01 01:13:04;;;;;;;2.08;1.13;;;21.70;46.50;;;;;;6181965;28;20035;-71
2022/06/01 01:16:04;;;;;;;1.25;1.00;;;21.70;46.60;;;;;;6171691;28;20582;-72
2022/06/01 01:19:13;;;;;;;1.13;0.90;;;21.70;46.80;;;;;;6194485;28;20042;-71
2022/06/01 01:22:30;;;;;;;1.38;0.98;;;21.70;46.90;;;;;;6186026;28;20030;-71
2022/06/01 01:25:40;;;;;;;1.63;1.00;;;21.70;47.00;;;;;;6166751;28;20130;-71
2022/06/01 01:28:41;;;;;;;1.63;1.00;;;21.70;47.10;;;;;;6189709;28;20045;-72
2022/06/01 01:31:45;;;;;;;1.30;0.90;;;21.70;47.10;;;;;;6193172;28;20030;-71
2022/06/01 01:34:46;;;;;;;1.60;1.20;;;21.70;47.20;;;;;;6195048;28;20038;-72
2022/06/01 01:37:49;;;;;;;1.33;1.00;;;21.60;47.20;;;;;;6167268;28;20473;-72
2022/06/01 01:41:23;;;;;;;1.08;0.90;;;21.70;47.30;;;;;;6170747;28;20497;-72
2022/06/01 01:44:49;;;;;;;1.33;1.00;;;21.60;47.30;;;;;;6191976;28;20037;-72
2022/06/01 01:47:51;;;;;;;1.15;0.80;;;21.60;47.40;;;;;;6184354;28;20035;-72
2022/06/01 01:50:54;;;;;;;1.02;0.90;;;21.60;47.40;;;;;;6169451;28;20486;-72
2022/06/01 01:53:55;;;;;;;1.77;0.93;;;21.60;47.60;;;;;;6184909;28;20034;-71
2022/06/01 01:57:10;;;;;;;1.70;1.00;;;21.60;47.60;;;;;;6192878;28;20018;-72
2022/06/01 02:00:36;;;;;;;1.48;0.98;;;21.60;47.60;;;;;;6169637;28;20386;-72
2022/06/01 02:03:46;;;;;;;1.08;0.80;;;21.60;47.70;;;;;;6174881;28;20046;-71
2022/06/01 02:06:48;;;;;;;1.50;1.00;;;21.60;47.70;;;;;;6193957;28;20035;-72
2022/06/01 02:13:09;;;;;;;2.30;0.98;;;21.60;47.80;;;;;;6178245;28;20034;-72
2022/06/01 02:16:10;;;;;;;1.58;1.00;;;21.60;47.90;;;;;;6194428;28;20065;-72
2022/06/01 02:19:19;;;;;;;0.98;0.77;;;21.60;47.90;;;;;;6174827;28;20579;-73
2022/06/01 02:22:20;;;;;;;1.05;0.88;;;21.60;47.90;;;;;;6169512;28;20027;-72
2022/06/01 02:25:21;;;;;;;1.45;0.95;;;21.60;48.00;;;;;;6193109;28;20132;-72
2022/06/01 02:28:21;;;;;;;1.17;0.88;;;21.60;48.10;;;;;;6184826;28;20062;-71
2022/06/01 02:31:23;;;;;;;1.83;1.00;;;21.60;48.20;;;;;;6178995;28;20397;-72
2022/06/01 02:34:25;;;;;;;1.13;0.90;;;21.60;48.20;;;;;;6177286;28;20121;-72
2022/06/01 02:37:29;;;;;;;1.33;0.90;;;21.60;48.20;;;;;;6170007;28;20534;-71
2022/06/01 02:40:30;;;;;;;1.00;0.85;;;21.50;48.20;;;;;;6189663;28;20473;-72
2022/06/01 02:43:30;;;;;;;1.15;0.70;;;21.50;48.20;;;;;;6175920;28;20022;-72
2022/06/01 02:46:31;;;;;;;1.05;0.80;;;21.50;48.30;;;;;;6191933;28;20066;-72
2022/06/01 02:49:32;;;;;;;1.23;0.98;;;21.50;48.40;;;;;;6183052;28;20118;-72
2022/06/01 02:52:33;;;;;;;1.00;0.70;;;21.50;48.40;;;;;;6173089;28;20031;-71
2022/06/01 02:55:34;;;;;;;1.63;1.00;;;21.50;48.50;;;;;;6193719;28;20053;-72
2022/06/01 02:58:34;;;;;;;1.15;0.80;;;21.50;48.50;;;;;;6191649;28;20022;-71
2022/06/01 03:01:36;;;;;;;1.35;1.05;;;21.50;48.60;;;;;;6174548;28;20059;-72
2022/06/01 03:04:42;;;;;;;0.93;0.63;;;21.50;48.60;;;;;;6188067;28;20026;-73
2022/06/01 03:07:43;;;;;;;0.93;0.80;;;21.50;48.70;;;;;;6198168;28;20026;-71
2022/06/01 03:10:44;;;;;;;0.82;0.70;;;21.50;48.70;;;;;;6176815;28;20470;-72
2022/06/01 03:13:45;;;;;;;1.30;1.10;;;21.50;48.70;;;;;;6179389;28;20046;-72
2022/06/01 03:16:45;;;;;;;1.05;0.82;;;21.40;48.70;;;;;;6198625;28;20023;-72
2022/06/01 03:19:46;;;;;;;1.52;0.80;;;21.40;48.70;;;;;;6185459;28;20027;-72
2022/06/01 03:22:46;;;;;;;1.50;0.88;;;21.40;48.70;;;;;;6174246;28;20545;-72
2022/06/01 03:25:47;;;;;;;1.63;1.00;;;21.40;48.80;;;;;;6193979;28;20030;-72
2022/06/01 03:28:48;;;;;;;1.30;0.80;;;21.40;48.80;;;;;;6194478;28;20114;-72
2022/06/01 03:31:50;;;;;;;1.27;0.90;;;21.40;48.90;;;;;;6172523;28;20031;-72
2022/06/01 03:34:50;;;;;;;1.20;0.80;;;21.40;48.90;;;;;;6183616;28;20023;-72
2022/06/01 03:37:52;;;;;;;1.60;0.80;;;21.40;48.90;;;;;;6168431;28;20094;-72
2022/06/01 03:40:52;;;;;;;0.95;0.80;;;21.40;48.80;;;;;;6190825;28;20169;-71
2022/06/01 03:47:13;;;;;;;1.00;0.70;;;21.40;48.90;;;;;;6172589;28;20039;-72
2022/06/01 03:50:14;;;;;;;1.00;0.73;;;21.40;48.90;;;;;;6185660;28;20093;-73
2022/06/01 03:53:15;;;;;;;1.17;0.90;;;21.40;49.00;;;;;;6185920;28;20026;-72
2022/06/01 03:56:16;;;;;;;1.52;0.93;;;21.40;49.00;;;;;;6192692;28;20030;-72
2022/06/01 03:59:17;;;;;;;0.75;0.70;;;21.40;49.00;;;;;;6190693;28;20331;-72
2022/06/01 04:02:17;;;;;;;0.73;0.70;;;21.40;49.10;;;;;;6172003;28;20030;-72
2022/06/01 04:05:19;;;;;;;1.00;0.70;;;21.40;49.00;;;;;;6180977;28;20461;-72
2022/06/01 04:08:20;;;;;;;1.17;0.90;;;21.40;49.00;;;;;;6196208;28;20077;-72
2022/06/01 04:11:20;;;;;;;0.90;0.80;;;21.40;49.20;;;;;;6178413;28;20015;-72
2022/06/01 04:14:21;;;;;;;1.48;0.90;;;21.30;49.10;;;;;;6175204;28;20038;-72
2022/06/01 04:17:22;;;;;;;0.95;0.73;;;21.30;49.00;;;;;;6196873;28;20030;-71
2022/06/01 04:20:23;;;;;;;1.10;0.80;;;21.40;49.20;;;;;;6187243;28;20034;-72
2022/06/01 04:23:23;;;;;;;0.63;0.60;;;21.30;49.20;;;;;;6169187;28;20066;-72
2022/06/01 04:26:24;;;;;;;0.90;0.70;;;21.30;49.10;;;;;;6180529;28;20409;-72
2022/06/01 04:29:24;;;;;;;1.00;0.80;;;21.30;49.10;;;;;;6196464;28;20049;-72
2022/06/01 04:32:28;;;;;;;1.33;0.80;;;21.30;49.10;;;;;;6172275;28;20085;-72
2022/06/01 04:35:29;;;;;;;0.82;0.70;;;21.30;49.20;;;;;;6172434;28;20553;-72
2022/06/01 04:38:30;;;;;;;1.10;0.95;;;21.30;49.20;;;;;;6172434;28;20034;-71
2022/06/01 04:41:31;;;;;;;1.33;0.90;;;21.30;49.20;;;;;;6187848;28;20481;-72
2022/06/01 04:44:31;;;;;;;1.00;0.70;;;21.30;49.20;;;;;;6195698;28;20100;-72
2022/06/01 04:47:32;;;;;;;1.02;0.60;;;21.30;49.30;;;;;;6193941;28;20481;-72
2022/06/01 04:50:33;;;;;;;0.88;0.60;;;21.30;49.20;;;;;;6189956;28;20058;-71
2022/06/01 04:53:34;;;;;;;1.13;0.80;;;21.30;49.20;;;;;;6172690;28;20026;-71
2022/06/01 04:56:35;;;;;;;0.90;0.70;;;21.30;49.40;;;;;;6178792;28;20323;-72
2022/06/01 05:03:32;;;;;;;1.40;0.90;;;21.30;49.30;;;;;;6170261;28;20449;-74
2022/06/01 05:06:33;;;;;;;1.42;0.80;;;21.30;49.40;;;;;;6183074;28;20030;-74
2022/06/01 05:09:34;;;;;;;0.90;0.70;;;21.30;49.40;;;;;;6192308;28;20038;-72
2022/06/01 05:12:34;;;;;;;1.30;0.77;;;21.30;49.40;;;;;;6174341;28;20030;-72
2022/06/01 05:15:44;;;;;;;0.73;0.57;;;21.30;49.40;;;;;;6174644;28;20022;-72
2022/06/01 05:18:45;;;;;;;0.80;0.70;;;21.30;49.50;;;;;;6194385;28;20535;-72
2022/06/01 05:21:45;;;;;;;0.60;0.60;;;21.30;49.40;;;;;;6182019;28;20073;-72
2022/06/01 05:24:46;;;;;;;3.17;0.88;;;21.30;49.40;;;;;;6170556;28;20031;-72
2022/06/01 05:27:46;;;;;;;1.17;0.73;;;21.30;49.40;;;;;;6169473;28;20038;-72
2022/06/01 05:30:47;;;;;;;1.17;0.63;;;21.30;49.40;;;;;;6171081;28;20050;-72
2022/06/01 05:33:49;;;;;;;1.13;0.60;;;21.30;49.50;;;;;;6171085;28;20047;-72
2022/06/01 05:36:49;;;;;;;0.95;0.80;;;21.30;49.50;;;;;;6182217;28;20034;-72
2022/06/01 05:39:49;;;;;;;0.93;0.73;;;21.30;49.50;;;;;;6195411;28;20100;-72
2022/06/01 05:42:50;;;;;;;0.80;0.73;;;21.30;49.50;;;;;;6176838;28;20035;-72
2022/06/01 05:45:51;;;;;;;0.93;0.80;;;21.30;49.50;;;;;;6172650;28;20058;-71
2022/06/01 05:48:51;;;;;;;0.65;0.55;;;21.30;49.50;;;;;;6194844;28;20030;-72
2022/06/01 05:51:53;;;;;;;1.23;0.93;;;21.30;49.60;;;;;;6182413;28;20039;-72
2022/06/01 05:54:53;;;;;;;0.90;0.60;;;21.30;49.50;;;;;;6169678;28;20036;-72
2022/06/01 05:57:54;;;;;;;0.77;0.70;;;21.30;49.50;;;;;;6186665;28;20041;-72
2022/06/01 06:00:59;;;;;;;0.95;0.70;;;21.20;49.50;;;;;;6188422;28;20085;-72
2022/06/01 06:03:59;;;;;;;;;;;21.30;49.60;;;;;;6180974;28;20080;-72
2022/06/01 06:07:01;;;;;;;1.08;0.77;;;21.30;49.60;;;;;;6196769;28;20513;-72
2022/06/01 06:10:02;;;;;;;1.13;0.85;;;21.30;49.60;;;;;;6175791;28;20389;-72
2022/06/01 06:13:03;;;;;;;0.88;0.70;;;21.30;49.70;;;;;;6188378;28;20027;-72
2022/06/01 06:16:04;;;;;;;0.60;0.60;;;21.20;49.50;;;;;;6197290;28;20026;-72
2022/06/01 06:19:05;;;;;;;0.50;0.40;;;21.30;49.70;;;;;;6173420;28;20358;-72
2022/06/01 06:22:06;;;;;;;0.63;0.60;;;21.20;49.60;;;;;;6182024;28;20018;-73
2022/06/01 06:25:07;;;;;;;0.85;0.80;;;21.30;49.70;;;;;;6201599;28;20025;-72
2022/06/01 06:28:08;;;;;;;0.90;0.77;;;21.20;49.60;;;;;;6186752;28;20030;-72
2022/06/01 06:31:09;;;;;;;0.88;0.77;;;21.20;49.60;;;;;;6177375;28;20054;-72
2022/06/01 06:34:09;;;;;;;1.00;0.80;;;21.20;49.60;;;;;;6186103;28;20051;-74
2022/06/01 06:37:10;;;;;;;1.10;0.70;;;21.20;49.70;;;;;;6182659;28;20058;-72
2022/06/01 06:40:12;;;;;;;0.80;0.63;;;21.20;49.70;;;;;;6201065;28;20022;-72
2022/06/01 06:43:12;;;;;;;0.50;0.50;;;21.20;49.70;;;;;;6188487;28;20117;-72
2022/06/01 06:46:16;;;;;;;0.63;0.63;;;21.20;49.60;;;;;;6176839;28;20026;-72
2022/06/01 06:49:16;;;;;;;0.63;0.63;;;21.20;49.70;;;;;;6182182;28;20038;-72
2022/06/01 06:52:17;;;;;;;0.55;0.52;;;21.20;49.60;;;;;;6197072;28;20029;-72
2022/06/01 06:55:17;;;;;;;0.70;0.60;;;21.20;49.60;;;;;;6176103;28;20038;-72
2022/06/01 06:58:18;;;;;;;0.63;0.60;;;21.20;49.70;;;;;;6183338;28;20389;-72
2022/06/01 07:01:18;;;;;;;0.70;0.70;;;21.20;49.70;;;;;;6199022;28;20076;-72
2022/06/01 07:04:19;;;;;;;0.75;0.60;;;21.20;49.70;;;;;;6180982;28;20034;-74
2022/06/01 07:07:19;;;;;;;0.60;0.60;;;21.20;49.70;;;;;;6179370;28;20066;-72
2022/06/01 07:10:20;;;;;;;0.90;0.60;;;21.20;49.70;;;;;;6200704;28;20384;-72
2022/06/01 07:13:21;;;;;;;0.70;0.60;;;21.20;49.70;;;;;;6190006;28;20387;-72
2022/06/01 07:16:28;;;;;;;0.80;0.60;;;21.20;49.70;;;;;;6175741;28;20027;-72
2022/06/01 07:19:28;;;;;;;0.60;0.50;;;21.20;49.80;;;;;;6193827;28;20022;-72
2022/06/01 07:22:29;;;;;;;0.57;0.57;;;21.20;49.80;;;;;;6194944;28;20408;-72
2022/06/01 07:25:29;;;;;;;0.82;0.55;;;21.20;49.80;;;;;;6172242;28;20029;-72
2022/06/01 07:28:30;;;;;;;1.25;0.73;;;21.20;49.80;;;;;;6184472;28;20124;-72
2022/06/01 07:31:31;;;;;;;1.05;0.68;;;21.20;49.80;;;;;;6199496;28;20031;-73
2022/06/01 07:34:32;;;;;;;0.88;0.50;;;21.20;49.90;;;;;;6164603;28;20046;-73
2022/06/01 07:44:10;;;;;;;0.98;0.70;;;21.20;49.80;;;;;;6188557;28;20030;-72
2022/06/01 07:47:12;;;;;;;0.55;0.50;;;21.20;49.80;;;;;;6199761;28;20100;-72
2022/06/01 07:50:12;;;;;;;0.85;0.73;;;21.20;49.80;;;;;;6179503;28;20027;-72
2022/06/01 07:53:13;;;;;;;0.60;0.60;;;21.20;49.90;;;;;;6183106;28;20594;-72
2022/06/01 07:56:14;;;;;;;0.65;0.60;;;21.20;49.80;;;;;;6175655;28;20082;-73
2022/06/01 07:59:15;;;;;;;0.65;0.63;;;21.20;49.90;;;;;;6173615;28;20501;-72
2022/06/01 08:02:15;;;;;;;0.98;0.60;;;21.20;49.90;;;;;;6175768;28;20041;-73
2022/06/01 08:05:18;;;;;;;0.68;0.60;;;21.20;49.90;;;;;;6194047;28;20031;-72
2022/06/01 08:08:18;;;;;;;0.50;0.50;;;21.20;49.90;;;;;;6197397;28;20041;-72
2022/06/01 08:11:20;;;;;;;0.60;0.60;;;21.20;49.90;;;;;;6175076;28;20405;-72
2022/06/01 08:14:20;;;;;;;0.80;0.70;;;21.20;50.60;;;;;;6184952;28;20031;-72
2022/06/01 08:17:21;;;;;;;0.52;0.43;;;21.20;49.90;;;;;;6199462;28;20030;-72
2022/06/01 08:20:22;;;;;;;0.73;0.52;;;21.20;49.90;;;;;;6181559;28;20042;-72
2022/06/01 08:23:26;;;;;;;0.68;0.60;;;21.20;50.00;;;;;;6176045;28;20027;-72
2022/06/01 08:26:27;;;;;;;0.65;0.65;;;21.20;50.00;;;;;;6195683;28;20019;-72
2022/06/01 08:29:27;;;;;;;0.60;0.60;;;21.20;49.80;;;;;;6189961;28;20146;-72
2022/06/01 08:32:28;;;;;;;0.55;0.52;;;21.20;49.90;;;;;;6174688;28;20133;-72
2022/06/01 08:35:36;;;;;;;0.93;0.70;;;21.20;49.90;;;;;;6174226;28;20038;-72
2022/06/01 08:38:36;;;;;;;0.73;0.60;;;21.20;49.90;;;;;;6174771;28;20027;-74
2022/06/01 08:41:39;;;;;;;0.80;0.70;;;21.20;50.00;;;;;;6196811;28;20038;-72
2022/06/01 08:44:42;;;;;;;0.75;0.60;;;21.20;49.90;;;;;;6173224;28;20093;-72
2022/06/01 08:47:43;;;;;;;0.65;0.63;;;21.20;50.00;;;;;;6174462;28;20559;-72
2022/06/01 08:50:46;;;;;;;0.88;0.70;;;21.20;50.00;;;;;;6184803;28;20046;-72
2022/06/01 08:53:46;;;;;;;0.55;0.52;;;21.20;50.00;;;;;;6195363;28;20062;-72
2022/06/01 08:56:53;;;;;;;1.25;0.80;;;21.20;50.00;;;;;;6173977;28;20037;-72
2022/06/01 09:00:14;;;;;;;1.08;0.55;;;21.20;50.00;;;;;;6182251;28;20022;-72
2022/06/01 09:03:33;;;;;;;0.50;0.50;;;21.20;50.00;;;;;;6194775;28;20038;-75
2022/06/01 09:06:38;;;;;;;0.50;0.40;;;21.20;50.00;;;;;;6177084;28;20434;-72
2022/06/01 09:10:19;;;;;;;0.80;0.77;;;21.20;50.00;;;;;;6178953;28;20436;-72
2022/06/01 09:13:24;;;;;;;1.17;0.55;;;21.20;50.00;;;;;;6197651;28;20022;-72
2022/06/01 09:16:43;;;;;;;0.95;0.80;;;21.20;50.10;;;;;;6178930;28;20363;-72
2022/06/01 09:23:11;;;;;;;0.50;0.50;;;21.20;50.10;;;;;;6197963;28;20057;-75
2022/06/01 09:26:28;;;;;;;0.65;0.50;;;21.20;50.10;;;;;;6182269;28;20025;-74
2022/06/01 09:29:32;;;;;;;0.98;0.60;;;21.20;50.00;;;;;;6171345;28;20046;-75
2022/06/01 09:32:40;;;;;;;0.70;0.60;;;21.20;50.00;;;;;;6180506;28;20051;-75
2022/06/01 09:36:00;;;;;;;0.93;0.73;;;21.20;50.10;;;;;;6182760;28;20386;-75
2022/06/01 09:39:03;;;;;;;1.05;0.60;;;21.20;50.10;;;;;;6197003;28;20022;-75
2022/06/01 09:42:14;;;;;;;0.52;0.50;;;21.20;50.10;;;;;;6158015;28;20027;-72
2022/06/01 09:45:27;;;;;;;0.57;0.50;;;21.20;50.10;;;;;;6177982;28;20030;-75
2022/06/01 09:48:34;;;;;;;0.50;0.50;;;21.20;50.00;;;;;;6197379;28;20046;-75
2022/06/01 09:51:39;;;;;;;0.88;0.63;;;21.20;50.10;;;;;;6179757;28;20035;-75
2022/06/01 09:54:52;;;;;;;0.73;0.63;;;21.20;50.10;;;;;;6172903;28;20015;-75
2022/06/01 09:58:07;;;;;;;0.63;0.52;;;21.20;50.10;;;;;;6173793;28;20139;-72
2022/06/01 10:08:14;;;;;;;0.55;0.40;;;21.20;50.10;;;;;;6173006;28;20050;-75
2022/06/01 10:11:29;;;;;;;0.75;0.60;;;21.20;50.10;;;;;;6182701;28;20065;-75
2022/06/01 10:14:36;;;;;;;1.08;0.55;;;21.20;50.10;;;;;;6197281;28;20699;-75
2022/06/01 10:17:42;;;;;;;0.70;0.57;;;21.20;50.00;;;;;;6176744;28;20035;-75
2022/06/01 10:20:57;;;;;;;0.57;0.50;;;21.20;50.10;;;;;;6177064;28;20031;-73
2022/06/01 10:24:04;;;;;;;0.50;0.50;;;21.20;50.10;;;;;;6195171;28;20524;-75
2022/06/01 10:27:05;;;;;;;0.45;0.45;;;21.20;50.10;;;;;;6181026;28;20035;-72
2022/06/01 10:30:17;;;;;;;0.73;0.52;;;21.20;50.10;;;;;;6171348;28;20023;-73
2022/06/01 10:33:34;;;;;;;0.75;0.60;;;21.20;50.10;;;;;;6172395;28;20051;-73
2022/06/01 10:37:10;;;;;;;0.63;0.47;;;21.20;50.00;;;;;;6178415;28;20022;-72
2022/06/01 10:40:21;;;;;;;0.60;0.60;;;21.20;50.10;;;;;;6193839;28;20088;-75
2022/06/01 10:43:55;;;;;;;0.95;0.57;;;21.20;50.10;;;;;;6172772;28;20044;-73
2022/06/01 10:47:07;;;;;;;0.70;0.50;;;21.20;50.20;;;;;;6169545;28;20483;-72
2022/06/01 10:50:16;;;;;;;0.57;0.57;;;21.20;50.20;;;;;;6196419;28;20041;-73
2022/06/01 10:53:39;;;;;;;0.50;0.50;;;21.20;50.20;;;;;;6176165;28;20429;-73
2022/06/01 10:56:41;;;;;;;0.55;0.50;;;21.20;50.20;;;;;;6179315;28;20030;-73
2022/06/01 10:59:41;;;;;;;0.40;0.40;;;21.20;50.20;;;;;;6194870;28;20034;-72
2022/06/01 11:03:03;;;;;;;0.80;0.75;;;21.20;50.20;;;;;;6181807;28;20551;-73
2022/06/01 11:06:18;;;;;;;0.95;0.50;;;21.20;50.20;;;;;;6172840;28;20019;-72
2022/06/01 11:10:02;;;;;;;0.90;0.70;;;21.20;50.20;;;;;;6200294;28;20046;-73
2022/06/01 11:13:13;;;;;;;0.65;0.50;;;21.20;50.20;;;;;;6144766;28;20090;-73
2022/06/01 11:16:38;;;;;;;0.70;0.60;;;21.20;50.20;;;;;;6200149;28;20066;-73
2022/06/01 11:19:56;;;;;;;0.70;0.70;;;21.20;50.20;;;;;;6200751;28;20018;-73
2022/06/01 11:23:31;;;;;;;0.60;0.40;;;21.20;50.20;;;;;;6186245;28;20031;-73
2022/06/01 11:27:13;;;;;;;0.70;0.60;;;21.20;50.20;;;;;;6176096;28;20033;-73
2022/06/01 11:30:19;;;;;;;0.50;0.50;;;21.20;50.20;;;;;;6175919;28;20385;-73
2022/06/01 11:33:39;;;;;;;0.60;0.50;;;21.10;50.10;;;;;;6172450;28;20112;-73
2022/06/01 11:36:46;;;;;;;0.55;0.52;;;21.20;50.20;;;;;;6177975;28;20031;-73
2022/06/01 11:40:04;;;;;;;0.68;0.68;;;21.20;50.20;;;;;;6200316;28;20026;-74
2022/06/01 11:43:29;;;;;;;0.60;0.57;;;21.20;50.20;;;;;;6185360;28;20501;-73
2022/06/01 11:46:39;;;;;;;0.80;0.70;;;21.20;50.20;;;;;;6175625;28;20037;-73
2022/06/01 11:49:41;;;;;;;0.50;0.40;;;21.20;50.30;;;;;;6175877;28;20513;-73
2022/06/01 11:52:56;;;;;;;0.60;0.50;;;21.20;50.30;;;;;;6175116;28;20433;-73
2022/06/01 11:56:25;;;;;;;0.77;0.60;;;21.20;50.20;;;;;;6175594;28;20058;-73
2022/06/01 11:59:32;;;;;;;0.40;0.40;;;21.20;50.20;;;;;;6196328;28;20179;-73
2022/06/01 12:02:48;;;;;;;0.43;0.43;;;21.20;50.30;;;;;;6194489;28;20504;-73
2022/06/01 12:06:12;;;;;;;0.60;0.52;;;21.20;50.20;;;;;;6175586;28;20034;-73
2022/06/01 12:09:30;;;;;;;0.40;0.40;;;21.20;50.90;;;;;;6194245;28;20038;-73
2022/06/01 12:12:37;;;;;;;0.40;0.40;;;21.20;50.30;;;;;;6193826;28;20100;-74
2022/06/01 12:16:02;;;;;;;0.93;0.60;;;21.20;50.30;;;;;;6175093;28;20090;-73
2022/06/01 12:19:13;;;;;;;0.88;0.70;;;21.10;50.20;;;;;;6189722;28;20150;-73
2022/06/01 12:29:13;;;;;;;1.10;0.60;;;21.20;50.30;;;;;;6189594;28;20070;-73
2022/06/01 12:32:14;;;;;;;0.60;0.60;;;21.20;50.30;;;;;;6198134;28;20057;-73
2022/06/01 12:35:19;;;;;;;0.73;0.52;;;21.10;50.10;;;;;;6176122;28;20113;-73
2022/06/01 12:38:33;;;;;;;0.80;0.70;;;21.20;50.30;;;;;;6182502;28;20805;-73
2022/06/01 12:41:36;;;;;;;0.60;0.60;;;21.20;50.30;;;;;;6198165;28;20088;-73
2022/06/01 12:44:39;;;;;;;2.38;0.70;;;21.20;50.40;;;;;;6196932;28;20030;-73
2022/06/01 12:48:12;;;;;;;0.88;0.70;;;21.20;50.30;;;;;;6198220;28;20049;-73
2022/06/01 12:51:13;;;;;;;1.95;0.90;;;21.20;50.30;;;;;;6168882;28;20046;-73
2022/06/01 12:54:34;;;;;;;1.35;0.93;;;21.20;50.30;;;;;;6186125;28;20105;-73
2022/06/01 12:57:51;;;;;;;1.13;0.77;;;21.20;50.40;;;;;;6198325;28;20026;-73
2022/06/01 13:00:56;;;;;;;1.65;0.93;;;21.20;50.40;;;;;;6174217;28;20125;-73
2022/06/01 13:03:59;;;;;;;0.93;0.70;;;21.20;50.40;;;;;;6182100;28;20473;-73
2022/06/01 13:07:00;;;;;;;1.55;0.95;;;21.20;50.40;;;;;;6197450;28;20663;-73
2022/06/01 13:10:08;;;;;;;1.05;0.70;;;21.20;50.40;;;;;;6198138;28;20030;-73
2022/06/01 13:13:20;;;;;;;0.60;0.60;;;21.10;50.30;;;;;;6195055;28;20124;-74
2022/06/01 13:16:24;;;;;;;1.25;0.77;;;21.20;50.40;;;;;;6173795;28;20034;-73
2022/06/01 13:19:28;;;;;;;0.77;0.70;;;21.20;50.40;;;;;;6183745;28;20508;-73
2022/06/01 13:22:36;;;;;;;1.27;1.00;;;21.20;50.40;;;;;;6197539;28;20096;-73
2022/06/01 13:25:37;;;;;;;0.70;0.68;;;21.20;50.40;;;;;;6178876;28;20481;-73
2022/06/01 13:28:38;;;;;;;1.17;0.70;;;21.20;50.40;;;;;;6175705;28;20119;-73
2022/06/01 13:31:41;;;;;;;1.08;0.70;;;21.20;50.40;;;;;;6197206;28;20022;-73
2022/06/01 13:34:45;;;;;;;0.65;0.60;;;21.20;50.40;;;;;;6185021;28;20394;-73
2022/06/01 13:37:46;;;;;;;0.70;0.55;;;21.20;50.40;;;;;;6174559;28;20031;-73
2022/06/01 13:40:56;;;;;;;1.73;0.70;;;21.20;50.40;;;;;;6188757;28;20074;-73
2022/06/01 13:43:56;;;;;;;0.70;0.52;;;21.20;50.50;;;;;;6176765;28;20026;-73
2022/06/01 13:47:01;;;;;;;0.90;0.70;;;21.20;51.10;;;;;;6195350;28;20085;-73
2022/06/01 13:50:12;;;;;;;0.70;0.60;;;21.20;50.40;;;;;;6186132;28;20386;-73
2022/06/01 13:53:25;;;;;;;1.10;0.70;;;21.20;50.50;;;;;;6171176;28;20367;-73
2022/06/01 13:56:39;;;;;;;0.80;0.68;;;21.20;50.50;;;;;;6194749;28;20030;-73
2022/06/01 13:59:52;;;;;;;0.82;0.63;;;21.20;50.50;;;;;;6190250;28;20030;-73
2022/06/01 14:03:04;;;;;;;0.93;0.70;;;21.20;50.50;;;;;;6173008;28;20109;-73
2022/06/01 14:06:07;;;;;;;2.70;0.77;;;21.20;50.50;;;;;;6190386;28;20025;-73
2022/06/01 14:09:11;;;;;;;1.35;0.85;;;21.20;50.50;;;;;;6193635;28;20038;-73
2022/06/01 14:12:14;;;;;;;1.90;0.85;;;21.20;50.50;;;;;;6172967;28;20027;-73
2022/06/01 14:15:14;;;;;;;0.80;0.60;;;21.20;50.50;;;;;;6176318;28;20478;-73
2022/06/01 14:18:24;;;;;;;1.25;0.80;;;21.20;50.50;;;;;;6196894;28;20080;-73
2022/06/01 14:21:26;;;;;;;0.68;0.68;;;21.20;50.50;;;;;;6178931;28;20027;-73
2022/06/01 14:28:28;;;;;;;0.55;0.52;;;21.20;50.50;;;;;;6175436;28;20396;-73
2022/06/01 14:31:11;;;;;;;1.17;0.80;;;21.20;50.60;;;;;;6182469;28;20027;-72
2022/06/01 14:34:14;;;;;;;0.50;0.50;;;21.20;50.60;;;;;;6172698;28;20417;-73
2022/06/01 14:37:14;;;;;;;0.77;0.55;;;21.20;50.90;;;;;;6172350;28;20031;-73
2022/06/01 14:40:15;;;;;;;0.70;0.52;;;21.20;50.60;;;;;;6178531;28;20026;-73
2022/06/01 14:43:25;;;;;;;1.02;0.57;;;21.10;50.60;;;;;;6197281;28;20031;-73
2022/06/01 14:46:26;;;;;;;1.02;0.77;;;21.20;50.70;;;;;;6186245;28;20030;-73
2022/06/01 14:49:27;;;;;;;1.20;0.70;;;21.20;50.60;;;;;;6177038;28;20556;-73
2022/06/01 14:52:27;;;;;;;0.73;0.63;;;21.20;50.60;;;;;;6193423;28;20026;-73
2022/06/01 14:55:28;;;;;;;0.68;0.50;;;21.20;50.70;;;;;;6195577;28;20086;-73
2022/06/01 14:58:28;;;;;;;0.70;0.60;;;21.20;50.60;;;;;;6176552;28;20393;-73
2022/06/01 15:01:33;;;;;;;1.27;0.65;;;21.20;50.70;;;;;;6189980;28;20026;-72
2022/06/01 15:04:38;;;;;;;1.08;0.85;;;21.20;50.70;;;;;;6200983;28;20072;-73
2022/06/01 15:07:39;;;;;;;;;;;21.20;50.60;;;;;;6179536;28;20489;-73
2022/06/01 15:10:41;;;;;;;2.20;0.63;;;21.20;50.70;;;;;;6178270;28;19914;-73
2022/06/01 15:13:41;;;;;;;0.90;0.60;;;21.20;50.70;;;;;;6200283;28;20038;-73
2022/06/01 15:16:46;;;;;;;0.90;0.80;;;21.20;50.70;;;;;;6187765;28;20393;-73
2022/06/01 15:19:47;;;;;;;0.65;0.57;;;21.20;50.70;;;;;;6176483;28;20054;-73
2022/06/01 15:22:48;;;;;;;0.63;0.55;;;21.20;50.70;;;;;;6198980;28;20030;-73
2022/06/01 15:25:48;;;;;;;0.98;0.80;;;21.20;50.80;;;;;;6196435;28;20460;-73
2022/06/01 15:28:49;;;;;;;0.80;0.63;;;21.20;50.70;;;;;;6176022;28;20042;-73
2022/06/01 15:41:49;;;;;;;0.75;0.55;;;21.20;50.80;;;;;;6175810;28;20155;-73
2022/06/01 15:44:49;;;;;;;0.40;0.40;;;21.20;50.80;;;;;;6170411;28;20073;-73
2022/06/01 15:47:59;;;;;;;0.70;0.50;;;21.20;50.80;;;;;;6175764;28;20086;-73
2022/06/01 15:50:59;;;;;;;0.73;0.73;;;21.20;50.80;;;;;;6177797;28;20027;-73
2022/06/01 15:54:00;;;;;;;0.95;0.70;;;21.20;50.80;;;;;;6195832;28;20041;-73
2022/06/01 15:57:01;;;;;;;0.65;0.50;;;21.20;50.80;;;;;;6187416;28;20030;-73
2022/06/01 16:00:02;;;;;;;1.20;0.70;;;21.20;50.80;;;;;;6175213;28;20027;-73
2022/06/01 16:03:03;;;;;;;0.60;0.60;;;21.20;50.80;;;;;;6168791;28;20110;-73
2022/06/01 16:06:04;;;;;;;0.70;0.63;;;21.20;50.80;;;;;;6173013;28;20038;-73
2022/06/01 16:09:05;;;;;;;0.98;0.82;;;21.10;50.70;;;;;;6199578;28;20069;-73
2022/06/01 16:12:06;;;;;;;0.80;0.63;;;21.20;50.80;;;;;;6190960;28;20482;-73
2022/06/01 16:15:07;;;;;;;1.00;0.60;;;21.10;50.70;;;;;;6173462;28;20038;-74
2022/06/01 16:18:08;;;;;;;0.40;0.40;;;21.20;50.70;;;;;;6189870;28;20026;-72
2022/06/01 16:21:10;;;;;;;0.80;0.68;;;21.20;50.80;;;;;;6197033;28;20706;-73
2022/06/01 16:24:11;;;;;;;0.60;0.60;;;21.20;50.80;;;;;;6173195;28;20360;-73
2022/06/01 16:27:11;;;;;;;0.93;0.75;;;21.20;50.80;;;;;;6180278;28;20014;-73
2022/06/01 16:30:12;;;;;;;0.95;0.70;;;21.20;50.90;;;;;;6194693;28;20058;-73
2022/06/01 16:33:21;;;;;;;0.73;0.73;;;21.20;50.90;;;;;;6181851;28;20054;-73
2022/06/01 16:36:31;;;;;;;0.70;0.60;;;21.20;50.80;;;;;;6172774;28;20030;-73
2022/06/01 16:39:31;;;;;;;0.75;0.60;;;21.20;50.80;;;;;;6172662;28;20121;-73
2022/06/01 16:42:32;;;;;;;0.50;0.50;;;21.10;50.70;;;;;;6180127;28;20488;-73
2022/06/01 16:45:37;;;;;;;1.00;0.60;;;21.20;50.90;;;;;;6196755;28;20109;-73
2022/06/01 16:48:38;;;;;;;0.73;0.60;;;21.20;50.90;;;;;;6180332;28;20105;-73
2022/06/01 16:51:40;;;;;;;0.70;0.70;;;21.10;50.80;;;;;;6171803;28;20062;-73